sensor_id;sensor_type;location;lat;lon;timestamp;temperature;humidity
19888;DHT22;10106;51.332;12.336;2023-04-16T00:02:18;9.40;99.90
19888;DHT22;10106;51.332;12.336;2023-04-16T00:04:43;9.40;99.90
19888;DHT22;10106;51.332;12.336;2023-04-16T00:07:09;9.40;99.90
19888;DHT22;10106;51.332;12.336;2023-04-16T00:09:35;9.30;99.90
19888;DHT22;10106;51.332;12.336;2023-04-16T00:12:00;9.30;99.90
19888;DHT22;10106;51.332;12.336;2023-04-16T00:14:28;9.30;99.90
19888;DHT22;10106;51.332;12.336;2023-04-16T00:16:53;9.40;99.90
19888;DHT22;10106;51.332;12.336;2023-04-16T00:19:19;9.40;99.90
19888;DHT22;10106;51.332;12.336;2023-04-16T00:21:45;9.40;99.90
19888;DHT22;10106;51.332;12.336;2023-04-16T00:24:10;9.30;99.90
19888;DHT22;10106;51.332;12.336;2023-04-16T00:26:36;9.40;99.90
19888;DHT22;10106;51.332;12.336;2023-04-16T00:29:02;9.30;99.90
19888;DHT22;10106;51.332;12.336;2023-04-16T00:31:28;9.40;99.90
19888;DHT22;10106;51.332;12.336;2023-04-16T00:33:58;9.40;99.90
19888;DHT22;10106;51.332;12.336;2023-04-16T00:36:25;9.30;99.90
19888;DHT22;10106;51.332;12.336;2023-04-16T00:38:55;9.30;99.90
19888;DHT22;10106;51.332;12.336;2023-04-16T00:41:21;9.30;99.90
19888;DHT22;10106;51.332;12.336;2023-04-16T00:43:48;9.30;99.90
19888;DHT22;10106;51.332;12.336;2023-04-16T00:46:15;9.40;99.90
19888;DHT22;10106;51.332;12.336;2023-04-16T00:48:42;9.40;99.90
19888;DHT22;10106;51.332;12.336;2023-04-16T00:51:09;9.30;99.90
19888;DHT22;10106;51.332;12.336;2023-04-16T00:53:35;9.40;99.90
19888;DHT22;10106;51.332;12.336;2023-04-16T00:56:02;9.40;99.90
19888;DHT22;10106;51.332;12.336;2023-04-16T00:58:29;9.40;99.90
19888;DHT22;10106;51.332;12.336;2023-04-16T01:00:54;9.40;99.90
19888;DHT22;10106;51.332;12.336;2023-04-16T01:03:21;9.40;99.90
19888;DHT22;10106;51.332;12.336;2023-04-16T01:05:47;9.40;99.90
19888;DHT22;10106;51.332;12.336;2023-04-16T01:08:18;9.30;99.90
19888;DHT22;10106;51.332;12.336;2023-04-16T01:10:44;9.40;99.90
19888;DHT22;10106;51.332;12.336;2023-04-16T01:13:10;9.30;99.90
19888;DHT22;10106;51.332;12.336;2023-04-16T01:15:36;9.30;99.90
19888;DHT22;10106;51.332;12.336;2023-04-16T01:18:02;9.30;99.90
19888;DHT22;10106;51.332;12.336;2023-04-16T01:20:28;9.30;99.90
19888;DHT22;10106;51.332;12.336;2023-04-16T01:22:54;9.30;99.90
19888;DHT22;10106;51.332;12.336;2023-04-16T01:25:19;9.30;99.90
19888;DHT22;10106;51.332;12.336;2023-04-16T01:27:48;9.30;99.90
19888;DHT22;10106;51.332;12.336;2023-04-16T01:30:14;9.30;99.90
19888;DHT22;10106;51.332;12.336;2023-04-16T01:32:40;9.40;99.90
19888;DHT22;10106;51.332;12.336;2023-04-16T01:35:06;9.40;99.90
19888;DHT22;10106;51.332;12.336;2023-04-16T01:37:32;9.40;99.90
19888;DHT22;10106;51.332;12.336;2023-04-16T01:39:57;9.40;99.90
19888;DHT22;10106;51.332;12.336;2023-04-16T01:42:23;9.40;99.90
19888;DHT22;10106;51.332;12.336;2023-04-16T01:44:49;9.30;99.90
19888;DHT22;10106;51.332;12.336;2023-04-16T01:47:15;9.30;99.90
19888;DHT22;10106;51.332;12.336;2023-04-16T01:49:42;9.30;99.90
19888;DHT22;10106;51.332;12.336;2023-04-16T01:52:09;9.30;99.90
19888;DHT22;10106;51.332;12.336;2023-04-16T01:54:35;9.30;99.90
19888;DHT22;10106;51.332;12.336;2023-04-16T01:57:01;9.20;99.90
19888;DHT22;10106;51.332;12.336;2023-04-16T01:59:27;9.20;99.90
19888;DHT22;10106;51.332;12.336;2023-04-16T02:01:53;9.20;99.90
19888;DHT22;10106;51.332;12.336;2023-04-16T02:04:18;9.20;99.90
19888;DHT22;10106;51.332;12.336;2023-04-16T02:06:44;9.20;99.90
19888;DHT22;10106;51.332;12.336;2023-04-16T02:09:10;9.20;99.90
19888;DHT22;10106;51.332;12.336;2023-04-16T02:11:36;9.20;99.90
19888;DHT22;10106;51.332;12.336;2023-04-16T02:14:01;9.30;99.90
19888;DHT22;10106;51.332;12.336;2023-04-16T02:16:27;9.20;99.90
19888;DHT22;10106;51.332;12.336;2023-04-16T02:18:52;9.30;99.90
19888;DHT22;10106;51.332;12.336;2023-04-16T02:21:18;9.20;99.90
19888;DHT22;10106;51.332;12.336;2023-04-16T02:23:44;9.20;99.90
19888;DHT22;10106;51.332;12.336;2023-04-16T02:26:12;9.20;99.90
19888;DHT22;10106;51.332;12.336;2023-04-16T02:28:38;9.20;99.90
19888;DHT22;10106;51.332;12.336;2023-04-16T02:31:03;9.20;99.90
19888;DHT22;10106;51.332;12.336;2023-04-16T02:33:29;9.20;99.90
19888;DHT22;10106;51.332;12.336;2023-04-16T02:35:56;9.20;99.90
19888;DHT22;10106;51.332;12.336;2023-04-16T02:38:22;9.20;99.90
19888;DHT22;10106;51.332;12.336;2023-04-16T02:40:47;9.20;99.90
19888;DHT22;10106;51.332;12.336;2023-04-16T02:43:13;9.20;99.90
19888;DHT22;10106;51.332;12.336;2023-04-16T02:45:39;9.10;99.90
19888;DHT22;10106;51.332;12.336;2023-04-16T02:48:04;9.10;99.90
19888;DHT22;10106;51.332;12.336;2023-04-16T02:50:31;9.20;99.90
19888;DHT22;10106;51.332;12.336;2023-04-16T02:52:57;9.20;99.90
19888;DHT22;10106;51.332;12.336;2023-04-16T02:55:22;9.10;99.90
19888;DHT22;10106;51.332;12.336;2023-04-16T02:57:48;9.10;99.90
19888;DHT22;10106;51.332;12.336;2023-04-16T03:00:14;9.10;99.90
19888;DHT22;10106;51.332;12.336;2023-04-16T03:02:40;9.10;99.90
19888;DHT22;10106;51.332;12.336;2023-04-16T03:05:06;9.10;99.90
19888;DHT22;10106;51.332;12.336;2023-04-16T03:07:31;9.10;99.90
19888;DHT22;10106;51.332;12.336;2023-04-16T03:09:57;9.10;99.90
19888;DHT22;10106;51.332;12.336;2023-04-16T03:12:22;9.10;99.90
19888;DHT22;10106;51.332;12.336;2023-04-16T03:14:50;9.00;99.90
19888;DHT22;10106;51.332;12.336;2023-04-16T03:17:17;9.00;99.90
19888;DHT22;10106;51.332;12.336;2023-04-16T03:19:42;9.10;99.90
19888;DHT22;10106;51.332;12.336;2023-04-16T03:22:08;9.00;99.90
19888;DHT22;10106;51.332;12.336;2023-04-16T03:24:33;9.10;99.90
19888;DHT22;10106;51.332;12.336;2023-04-16T03:26:59;9.00;99.90
19888;DHT22;10106;51.332;12.336;2023-04-16T03:29:26;9.10;99.90
19888;DHT22;10106;51.332;12.336;2023-04-16T03:31:51;9.10;99.90
19888;DHT22;10106;51.332;12.336;2023-04-16T03:34:17;9.00;99.90
19888;DHT22;10106;51.332;12.336;2023-04-16T03:36:43;9.00;99.90
19888;DHT22;10106;51.332;12.336;2023-04-16T03:39:08;9.00;99.90
19888;DHT22;10106;51.332;12.336;2023-04-16T03:41:34;9.10;99.90
19888;DHT22;10106;51.332;12.336;2023-04-16T03:44:00;9.00;99.90
19888;DHT22;10106;51.332;12.336;2023-04-16T03:46:25;9.00;99.90
19888;DHT22;10106;51.332;12.336;2023-04-16T03:48:51;9.00;99.90
19888;DHT22;10106;51.332;12.336;2023-04-16T03:51:16;9.00;99.90
19888;DHT22;10106;51.332;12.336;2023-04-16T03:53:42;9.00;99.90
19888;DHT22;10106;51.332;12.336;2023-04-16T03:56:08;9.00;99.90
19888;DHT22;10106;51.332;12.336;2023-04-16T03:58:33;9.00;99.90
19888;DHT22;10106;51.332;12.336;2023-04-16T04:00:59;9.00;99.90
19888;DHT22;10106;51.332;12.336;2023-04-16T04:03:25;9.00;99.90
19888;DHT22;10106;51.332;12.336;2023-04-16T04:05:50;9.00;99.90
19888;DHT22;10106;51.332;12.336;2023-04-16T04:08:16;9.00;99.90
19888;DHT22;10106;51.332;12.336;2023-04-16T04:10:42;8.90;99.90
19888;DHT22;10106;51.332;12.336;2023-04-16T04:13:07;9.00;99.90
19888;DHT22;10106;51.332;12.336;2023-04-16T04:15:33;8.90;99.90
19888;DHT22;10106;51.332;12.336;2023-04-16T04:17:59;8.90;99.90
19888;DHT22;10106;51.332;12.336;2023-04-16T04:20:24;8.90;99.90
19888;DHT22;10106;51.332;12.336;2023-04-16T04:22:50;8.90;99.90
19888;DHT22;10106;51.332;12.336;2023-04-16T04:25:16;9.00;99.90
19888;DHT22;10106;51.332;12.336;2023-04-16T04:27:42;8.90;99.90
19888;DHT22;10106;51.332;12.336;2023-04-16T04:30:08;8.90;99.90
19888;DHT22;10106;51.332;12.336;2023-04-16T04:32:34;8.90;99.90
19888;DHT22;10106;51.332;12.336;2023-04-16T04:35:01;8.90;99.90
19888;DHT22;10106;51.332;12.336;2023-04-16T04:37:27;8.90;99.90
19888;DHT22;10106;51.332;12.336;2023-04-16T04:39:53;8.90;99.90
19888;DHT22;10106;51.332;12.336;2023-04-16T04:42:19;8.90;99.90
19888;DHT22;10106;51.332;12.336;2023-04-16T04:44:45;9.00;99.90
19888;DHT22;10106;51.332;12.336;2023-04-16T04:47:12;8.90;99.90
19888;DHT22;10106;51.332;12.336;2023-04-16T04:49:37;9.00;99.90
19888;DHT22;10106;51.332;12.336;2023-04-16T04:52:03;9.00;99.90
19888;DHT22;10106;51.332;12.336;2023-04-16T04:54:30;9.00;99.90
19888;DHT22;10106;51.332;12.336;2023-04-16T04:56:55;8.90;99.90
19888;DHT22;10106;51.332;12.336;2023-04-16T04:59:22;8.90;99.90
19888;DHT22;10106;51.332;12.336;2023-04-16T05:06:58;8.90;99.90
19888;DHT22;10106;51.332;12.336;2023-04-16T05:09:24;9.00;99.90
19888;DHT22;10106;51.332;12.336;2023-04-16T05:11:50;9.00;99.90
19888;DHT22;10106;51.332;12.336;2023-04-16T05:14:15;8.90;99.90
19888;DHT22;10106;51.332;12.336;2023-04-16T05:16:41;9.00;99.90
19888;DHT22;10106;51.332;12.336;2023-04-16T05:19:07;9.00;99.90
19888;DHT22;10106;51.332;12.336;2023-04-16T05:21:33;9.00;99.90
19888;DHT22;10106;51.332;12.336;2023-04-16T05:23:58;9.00;99.90
19888;DHT22;10106;51.332;12.336;2023-04-16T05:26:24;9.00;99.90
19888;DHT22;10106;51.332;12.336;2023-04-16T05:28:50;9.00;99.90
19888;DHT22;10106;51.332;12.336;2023-04-16T05:31:16;9.00;99.90
19888;DHT22;10106;51.332;12.336;2023-04-16T05:33:41;8.90;99.90
19888;DHT22;10106;51.332;12.336;2023-04-16T05:36:07;8.90;99.90
19888;DHT22;10106;51.332;12.336;2023-04-16T05:38:32;9.00;99.90
19888;DHT22;10106;51.332;12.336;2023-04-16T05:40:58;9.00;99.90
19888;DHT22;10106;51.332;12.336;2023-04-16T05:43:24;9.00;99.90
19888;DHT22;10106;51.332;12.336;2023-04-16T05:45:49;8.90;99.90
19888;DHT22;10106;51.332;12.336;2023-04-16T05:48:15;9.00;99.90
19888;DHT22;10106;51.332;12.336;2023-04-16T05:50:41;9.00;99.90
19888;DHT22;10106;51.332;12.336;2023-04-16T05:53:07;9.00;99.90
19888;DHT22;10106;51.332;12.336;2023-04-16T05:55:34;9.00;99.90
19888;DHT22;10106;51.332;12.336;2023-04-16T05:58:01;9.10;99.90
19888;DHT22;10106;51.332;12.336;2023-04-16T06:00:29;9.10;99.90
19888;DHT22;10106;51.332;12.336;2023-04-16T06:02:55;9.20;99.90
19888;DHT22;10106;51.332;12.336;2023-04-16T06:05:20;9.20;99.90
19888;DHT22;10106;51.332;12.336;2023-04-16T06:07:46;9.30;99.90
19888;DHT22;10106;51.332;12.336;2023-04-16T06:10:12;9.30;99.90
19888;DHT22;10106;51.332;12.336;2023-04-16T06:12:38;9.30;99.90
19888;DHT22;10106;51.332;12.336;2023-04-16T06:15:04;9.30;99.90
19888;DHT22;10106;51.332;12.336;2023-04-16T06:17:30;9.30;99.90
19888;DHT22;10106;51.332;12.336;2023-04-16T06:19:55;9.40;99.90
19888;DHT22;10106;51.332;12.336;2023-04-16T06:22:21;9.40;99.90
19888;DHT22;10106;51.332;12.336;2023-04-16T06:24:46;9.40;99.90
19888;DHT22;10106;51.332;12.336;2023-04-16T06:27:12;9.40;99.90
19888;DHT22;10106;51.332;12.336;2023-04-16T06:29:38;9.50;99.90
19888;DHT22;10106;51.332;12.336;2023-04-16T06:32:03;9.50;99.90
19888;DHT22;10106;51.332;12.336;2023-04-16T06:34:30;9.50;99.90
19888;DHT22;10106;51.332;12.336;2023-04-16T06:36:56;9.50;99.90
19888;DHT22;10106;51.332;12.336;2023-04-16T06:39:21;9.50;99.90
19888;DHT22;10106;51.332;12.336;2023-04-16T06:41:47;9.50;99.90
19888;DHT22;10106;51.332;12.336;2023-04-16T06:44:14;9.50;99.90
19888;DHT22;10106;51.332;12.336;2023-04-16T06:46:40;9.50;99.90
19888;DHT22;10106;51.332;12.336;2023-04-16T06:49:05;9.50;99.90
19888;DHT22;10106;51.332;12.336;2023-04-16T06:51:31;9.60;99.90
19888;DHT22;10106;51.332;12.336;2023-04-16T06:53:57;9.60;99.90
19888;DHT22;10106;51.332;12.336;2023-04-16T06:56:23;9.60;99.90
19888;DHT22;10106;51.332;12.336;2023-04-16T06:58:49;9.60;99.90
19888;DHT22;10106;51.332;12.336;2023-04-16T07:01:16;9.60;99.90
19888;DHT22;10106;51.332;12.336;2023-04-16T07:03:41;9.60;99.90
19888;DHT22;10106;51.332;12.336;2023-04-16T07:06:07;9.60;99.90
19888;DHT22;10106;51.332;12.336;2023-04-16T07:08:33;9.50;99.90
19888;DHT22;10106;51.332;12.336;2023-04-16T07:10:59;9.50;99.90
19888;DHT22;10106;51.332;12.336;2023-04-16T07:13:24;9.50;99.90
19888;DHT22;10106;51.332;12.336;2023-04-16T07:15:50;9.50;99.90
19888;DHT22;10106;51.332;12.336;2023-04-16T07:18:17;9.50;99.90
19888;DHT22;10106;51.332;12.336;2023-04-16T07:20:42;9.50;99.90
19888;DHT22;10106;51.332;12.336;2023-04-16T07:23:08;9.60;99.90
19888;DHT22;10106;51.332;12.336;2023-04-16T07:25:34;9.60;99.90
19888;DHT22;10106;51.332;12.336;2023-04-16T07:28:00;9.60;99.90
19888;DHT22;10106;51.332;12.336;2023-04-16T07:30:26;9.70;99.90
19888;DHT22;10106;51.332;12.336;2023-04-16T07:32:57;9.70;99.90
19888;DHT22;10106;51.332;12.336;2023-04-16T07:35:22;9.70;99.90
19888;DHT22;10106;51.332;12.336;2023-04-16T07:37:48;9.80;99.90
19888;DHT22;10106;51.332;12.336;2023-04-16T07:40:14;9.80;99.90
19888;DHT22;10106;51.332;12.336;2023-04-16T07:42:39;9.80;99.90
19888;DHT22;10106;51.332;12.336;2023-04-16T07:45:05;9.80;99.90
19888;DHT22;10106;51.332;12.336;2023-04-16T07:47:31;9.80;99.90
19888;DHT22;10106;51.332;12.336;2023-04-16T07:49:57;9.80;99.90
19888;DHT22;10106;51.332;12.336;2023-04-16T07:52:23;9.90;99.90
19888;DHT22;10106;51.332;12.336;2023-04-16T07:54:48;9.90;99.90
19888;DHT22;10106;51.332;12.336;2023-04-16T07:57:16;10.00;99.90
19888;DHT22;10106;51.332;12.336;2023-04-16T07:59:41;10.00;99.90
19888;DHT22;10106;51.332;12.336;2023-04-16T08:02:09;10.00;99.90
19888;DHT22;10106;51.332;12.336;2023-04-16T08:04:37;10.10;99.90
19888;DHT22;10106;51.332;12.336;2023-04-16T08:07:03;10.10;99.90
19888;DHT22;10106;51.332;12.336;2023-04-16T08:09:28;10.10;99.90
19888;DHT22;10106;51.332;12.336;2023-04-16T08:11:54;10.10;99.90
19888;DHT22;10106;51.332;12.336;2023-04-16T08:14:20;10.10;99.90
19888;DHT22;10106;51.332;12.336;2023-04-16T08:16:45;10.10;99.90
19888;DHT22;10106;51.332;12.336;2023-04-16T08:19:11;10.10;99.90
19888;DHT22;10106;51.332;12.336;2023-04-16T08:21:37;10.20;99.90
19888;DHT22;10106;51.332;12.336;2023-04-16T08:24:03;10.10;99.90
19888;DHT22;10106;51.332;12.336;2023-04-16T08:26:28;10.10;99.90
19888;DHT22;10106;51.332;12.336;2023-04-16T08:28:54;10.10;99.90
19888;DHT22;10106;51.332;12.336;2023-04-16T08:31:19;10.00;99.90
19888;DHT22;10106;51.332;12.336;2023-04-16T08:33:45;10.00;99.90
19888;DHT22;10106;51.332;12.336;2023-04-16T08:36:11;10.00;99.90
19888;DHT22;10106;51.332;12.336;2023-04-16T08:38:36;10.10;99.90
19888;DHT22;10106;51.332;12.336;2023-04-16T08:41:05;10.10;99.90
19888;DHT22;10106;51.332;12.336;2023-04-16T08:43:36;10.00;99.90
19888;DHT22;10106;51.332;12.336;2023-04-16T08:46:04;10.10;99.90
19888;DHT22;10106;51.332;12.336;2023-04-16T08:48:33;10.00;99.90
19888;DHT22;10106;51.332;12.336;2023-04-16T08:51:00;10.00;99.90
19888;DHT22;10106;51.332;12.336;2023-04-16T08:53:45;9.90;99.90
19888;DHT22;10106;51.332;12.336;2023-04-16T08:56:13;9.80;99.90
19888;DHT22;10106;51.332;12.336;2023-04-16T08:58:40;9.80;99.90
19888;DHT22;10106;51.332;12.336;2023-04-16T09:01:05;9.80;99.90
19888;DHT22;10106;51.332;12.336;2023-04-16T09:03:34;9.80;99.90
19888;DHT22;10106;51.332;12.336;2023-04-16T09:06:01;9.70;99.90
19888;DHT22;10106;51.332;12.336;2023-04-16T09:08:28;9.70;99.90
19888;DHT22;10106;51.332;12.336;2023-04-16T09:10:55;9.70;99.90
19888;DHT22;10106;51.332;12.336;2023-04-16T09:13:21;9.70;99.90
19888;DHT22;10106;51.332;12.336;2023-04-16T09:15:53;9.70;99.90
19888;DHT22;10106;51.332;12.336;2023-04-16T09:18:21;9.80;99.90
19888;DHT22;10106;51.332;12.336;2023-04-16T09:20:50;9.80;99.90
19888;DHT22;10106;51.332;12.336;2023-04-16T09:23:17;9.80;99.90
19888;DHT22;10106;51.332;12.336;2023-04-16T09:25:43;9.90;99.90
19888;DHT22;10106;51.332;12.336;2023-04-16T09:28:11;9.90;99.90
19888;DHT22;10106;51.332;12.336;2023-04-16T09:30:37;9.80;99.90
19888;DHT22;10106;51.332;12.336;2023-04-16T09:35:45;9.80;99.90
19888;DHT22;10106;51.332;12.336;2023-04-16T09:38:12;9.80;99.90
19888;DHT22;10106;51.332;12.336;2023-04-16T09:40:37;9.80;99.90
19888;DHT22;10106;51.332;12.336;2023-04-16T09:43:11;9.90;99.90
19888;DHT22;10106;51.332;12.336;2023-04-16T09:45:57;9.90;99.90
19888;DHT22;10106;51.332;12.336;2023-04-16T09:48:29;9.90;99.90
19888;DHT22;10106;51.332;12.336;2023-04-16T09:50:56;9.90;99.90
19888;DHT22;10106;51.332;12.336;2023-04-16T09:53:23;10.00;99.90
19888;DHT22;10106;51.332;12.336;2023-04-16T09:55:50;10.00;99.90
19888;DHT22;10106;51.332;12.336;2023-04-16T09:58:18;10.00;99.90
19888;DHT22;10106;51.332;12.336;2023-04-16T10:00:44;10.00;99.90
19888;DHT22;10106;51.332;12.336;2023-04-16T10:03:10;10.00;99.90
19888;DHT22;10106;51.332;12.336;2023-04-16T10:05:35;10.10;99.90
19888;DHT22;10106;51.332;12.336;2023-04-16T10:08:01;10.30;99.90
19888;DHT22;10106;51.332;12.336;2023-04-16T10:10:28;10.40;99.90
19888;DHT22;10106;51.332;12.336;2023-04-16T10:12:54;10.50;99.90
19888;DHT22;10106;51.332;12.336;2023-04-16T10:15:21;10.60;99.90
19888;DHT22;10106;51.332;12.336;2023-04-16T10:17:47;10.50;99.90
19888;DHT22;10106;51.332;12.336;2023-04-16T10:20:13;10.50;99.90
19888;DHT22;10106;51.332;12.336;2023-04-16T10:22:41;10.40;99.90
19888;DHT22;10106;51.332;12.336;2023-04-16T10:25:06;10.40;99.90
19888;DHT22;10106;51.332;12.336;2023-04-16T10:27:33;10.30;99.90
19888;DHT22;10106;51.332;12.336;2023-04-16T10:29:59;10.20;99.90
19888;DHT22;10106;51.332;12.336;2023-04-16T10:32:26;10.10;99.90
19888;DHT22;10106;51.332;12.336;2023-04-16T10:34:54;10.10;99.90
19888;DHT22;10106;51.332;12.336;2023-04-16T10:37:28;10.10;99.90
19888;DHT22;10106;51.332;12.336;2023-04-16T10:39:55;10.20;99.90
19888;DHT22;10106;51.332;12.336;2023-04-16T10:42:22;10.20;99.90
19888;DHT22;10106;51.332;12.336;2023-04-16T10:44:48;10.30;99.90
19888;DHT22;10106;51.332;12.336;2023-04-16T10:47:13;10.20;99.90
19888;DHT22;10106;51.332;12.336;2023-04-16T10:49:40;10.30;99.90
19888;DHT22;10106;51.332;12.336;2023-04-16T10:52:15;10.40;99.90
19888;DHT22;10106;51.332;12.336;2023-04-16T10:54:41;10.60;99.90
19888;DHT22;10106;51.332;12.336;2023-04-16T10:57:08;10.60;99.90
19888;DHT22;10106;51.332;12.336;2023-04-16T10:59:35;10.70;99.90
19888;DHT22;10106;51.332;12.336;2023-04-16T11:02:07;10.60;99.90
19888;DHT22;10106;51.332;12.336;2023-04-16T11:04:38;10.60;99.90
19888;DHT22;10106;51.332;12.336;2023-04-16T11:07:13;10.60;99.90
19888;DHT22;10106;51.332;12.336;2023-04-16T11:15:13;10.80;99.90
19888;DHT22;10106;51.332;12.336;2023-04-16T11:17:40;11.00;99.90
19888;DHT22;10106;51.332;12.336;2023-04-16T11:20:18;11.10;99.90
19888;DHT22;10106;51.332;12.336;2023-04-16T11:22:44;11.20;99.90
19888;DHT22;10106;51.332;12.336;2023-04-16T11:25:10;11.50;99.90
19888;DHT22;10106;51.332;12.336;2023-04-16T11:27:36;11.50;99.90
19888;DHT22;10106;51.332;12.336;2023-04-16T11:30:06;11.40;99.90
19888;DHT22;10106;51.332;12.336;2023-04-16T11:32:37;11.30;99.90
19888;DHT22;10106;51.332;12.336;2023-04-16T11:35:04;11.10;99.90
19888;DHT22;10106;51.332;12.336;2023-04-16T11:37:37;10.90;99.90
19888;DHT22;10106;51.332;12.336;2023-04-16T11:40:04;10.90;99.90
19888;DHT22;10106;51.332;12.336;2023-04-16T11:42:35;10.80;99.90
19888;DHT22;10106;51.332;12.336;2023-04-16T11:45:02;10.60;99.90
19888;DHT22;10106;51.332;12.336;2023-04-16T11:47:29;10.60;99.90
19888;DHT22;10106;51.332;12.336;2023-04-16T11:49:56;10.50;99.90
19888;DHT22;10106;51.332;12.336;2023-04-16T11:52:29;10.50;99.90
19888;DHT22;10106;51.332;12.336;2023-04-16T11:54:56;10.50;99.90
19888;DHT22;10106;51.332;12.336;2023-04-16T11:57:26;10.50;99.90
19888;DHT22;10106;51.332;12.336;2023-04-16T11:59:56;10.60;99.90
19888;DHT22;10106;51.332;12.336;2023-04-16T12:02:48;10.60;99.90
19888;DHT22;10106;51.332;12.336;2023-04-16T12:05:27;10.50;99.90
19888;DHT22;10106;51.332;12.336;2023-04-16T12:07:53;10.60;99.90
19888;DHT22;10106;51.332;12.336;2023-04-16T12:10:19;10.60;99.90
19888;DHT22;10106;51.332;12.336;2023-04-16T12:12:45;10.60;99.90
19888;DHT22;10106;51.332;12.336;2023-04-16T12:15:11;10.70;99.90
19888;DHT22;10106;51.332;12.336;2023-04-16T12:17:37;10.70;99.90
19888;DHT22;10106;51.332;12.336;2023-04-16T12:22:35;10.70;99.90
19888;DHT22;10106;51.332;12.336;2023-04-16T12:25:15;10.80;99.90
19888;DHT22;10106;51.332;12.336;2023-04-16T12:27:51;10.90;99.90
19888;DHT22;10106;51.332;12.336;2023-04-16T12:30:19;11.00;99.90
19888;DHT22;10106;51.332;12.336;2023-04-16T12:32:48;11.10;99.90
19888;DHT22;10106;51.332;12.336;2023-04-16T12:35:29;11.20;99.90
19888;DHT22;10106;51.332;12.336;2023-04-16T12:37:56;11.20;99.90
19888;DHT22;10106;51.332;12.336;2023-04-16T12:40:21;11.30;99.90
19888;DHT22;10106;51.332;12.336;2023-04-16T12:42:47;11.40;99.90
19888;DHT22;10106;51.332;12.336;2023-04-16T12:45:13;11.50;99.90
19888;DHT22;10106;51.332;12.336;2023-04-16T12:47:38;11.40;99.90
19888;DHT22;10106;51.332;12.336;2023-04-16T12:50:04;11.50;99.90
19888;DHT22;10106;51.332;12.336;2023-04-16T12:52:30;11.60;99.90
19888;DHT22;10106;51.332;12.336;2023-04-16T12:54:56;11.60;99.90
19888;DHT22;10106;51.332;12.336;2023-04-16T12:57:22;11.40;99.90
19888;DHT22;10106;51.332;12.336;2023-04-16T12:59:54;11.30;99.90
19888;DHT22;10106;51.332;12.336;2023-04-16T13:02:20;11.10;99.90
19888;DHT22;10106;51.332;12.336;2023-04-16T13:04:46;11.00;99.90
19888;DHT22;10106;51.332;12.336;2023-04-16T13:07:11;10.90;99.90
19888;DHT22;10106;51.332;12.336;2023-04-16T13:09:37;10.90;99.90
19888;DHT22;10106;51.332;12.336;2023-04-16T13:12:04;10.80;99.90
19888;DHT22;10106;51.332;12.336;2023-04-16T13:14:30;10.80;99.90
19888;DHT22;10106;51.332;12.336;2023-04-16T13:16:55;10.80;99.90
19888;DHT22;10106;51.332;12.336;2023-04-16T13:19:21;10.70;99.90
19888;DHT22;10106;51.332;12.336;2023-04-16T13:21:47;10.70;99.90
19888;DHT22;10106;51.332;12.336;2023-04-16T13:24:12;10.60;99.90
19888;DHT22;10106;51.332;12.336;2023-04-16T13:26:38;10.60;99.90
19888;DHT22;10106;51.332;12.336;2023-04-16T13:29:04;10.60;99.90
19888;DHT22;10106;51.332;12.336;2023-04-16T13:31:29;10.70;99.90
19888;DHT22;10106;51.332;12.336;2023-04-16T13:33:55;10.80;99.90
19888;DHT22;10106;51.332;12.336;2023-04-16T13:36:21;11.00;99.90
19888;DHT22;10106;51.332;12.336;2023-04-16T13:38:46;11.00;99.90
19888;DHT22;10106;51.332;12.336;2023-04-16T13:41:12;11.10;99.90
19888;DHT22;10106;51.332;12.336;2023-04-16T13:43:38;11.10;99.90
19888;DHT22;10106;51.332;12.336;2023-04-16T13:46:03;11.10;99.90
19888;DHT22;10106;51.332;12.336;2023-04-16T13:48:29;11.00;99.90
19888;DHT22;10106;51.332;12.336;2023-04-16T13:50:55;11.00;99.90
19888;DHT22;10106;51.332;12.336;2023-04-16T13:53:21;11.10;99.90
19888;DHT22;10106;51.332;12.336;2023-04-16T13:55:47;11.10;99.90
19888;DHT22;10106;51.332;12.336;2023-04-16T13:58:14;11.20;99.90
19888;DHT22;10106;51.332;12.336;2023-04-16T14:00:41;11.30;99.90
19888;DHT22;10106;51.332;12.336;2023-04-16T14:03:07;11.50;99.90
19888;DHT22;10106;51.332;12.336;2023-04-16T14:05:32;11.60;99.90
19888;DHT22;10106;51.332;12.336;2023-04-16T14:07:58;11.80;99.90
19888;DHT22;10106;51.332;12.336;2023-04-16T14:10:24;11.70;99.90
19888;DHT22;10106;51.332;12.336;2023-04-16T14:12:49;11.70;99.90
19888;DHT22;10106;51.332;12.336;2023-04-16T14:15:15;11.60;99.90
19888;DHT22;10106;51.332;12.336;2023-04-16T14:17:42;11.50;99.90
19888;DHT22;10106;51.332;12.336;2023-04-16T14:20:11;11.40;99.90
19888;DHT22;10106;51.332;12.336;2023-04-16T14:22:37;11.40;99.90
19888;DHT22;10106;51.332;12.336;2023-04-16T14:25:04;11.30;99.90
19888;DHT22;10106;51.332;12.336;2023-04-16T14:27:30;11.10;99.90
19888;DHT22;10106;51.332;12.336;2023-04-16T14:29:56;11.10;99.90
19888;DHT22;10106;51.332;12.336;2023-04-16T14:32:22;11.10;99.90
19888;DHT22;10106;51.332;12.336;2023-04-16T14:34:48;11.10;99.90
19888;DHT22;10106;51.332;12.336;2023-04-16T14:37:16;11.10;99.90
19888;DHT22;10106;51.332;12.336;2023-04-16T14:39:41;11.20;99.90
19888;DHT22;10106;51.332;12.336;2023-04-16T14:42:07;11.10;99.90
19888;DHT22;10106;51.332;12.336;2023-04-16T14:44:33;11.00;99.90
19888;DHT22;10106;51.332;12.336;2023-04-16T14:46:59;11.10;99.90
19888;DHT22;10106;51.332;12.336;2023-04-16T14:49:25;11.10;99.90
19888;DHT22;10106;51.332;12.336;2023-04-16T14:51:50;11.10;99.90
19888;DHT22;10106;51.332;12.336;2023-04-16T14:54:17;11.10;99.90
19888;DHT22;10106;51.332;12.336;2023-04-16T14:56:44;11.10;99.90
19888;DHT22;10106;51.332;12.336;2023-04-16T14:59:10;11.10;99.90
19888;DHT22;10106;51.332;12.336;2023-04-16T15:01:36;11.10;99.90
19888;DHT22;10106;51.332;12.336;2023-04-16T15:04:07;11.10;99.90
19888;DHT22;10106;51.332;12.336;2023-04-16T15:06:33;11.10;99.90
19888;DHT22;10106;51.332;12.336;2023-04-16T15:09:00;11.20;99.90
19888;DHT22;10106;51.332;12.336;2023-04-16T15:11:25;11.30;99.90
19888;DHT22;10106;51.332;12.336;2023-04-16T15:13:55;11.50;99.90
19888;DHT22;10106;51.332;12.336;2023-04-16T15:16:21;11.60;99.90
19888;DHT22;10106;51.332;12.336;2023-04-16T15:18:48;11.80;99.90
19888;DHT22;10106;51.332;12.336;2023-04-16T15:21:15;11.90;99.90
19888;DHT22;10106;51.332;12.336;2023-04-16T15:23:40;12.00;99.90
19888;DHT22;10106;51.332;12.336;2023-04-16T15:26:07;12.00;99.90
19888;DHT22;10106;51.332;12.336;2023-04-16T15:28:33;12.00;99.90
19888;DHT22;10106;51.332;12.336;2023-04-16T15:30:58;11.90;99.90
19888;DHT22;10106;51.332;12.336;2023-04-16T15:33:24;11.80;99.90
19888;DHT22;10106;51.332;12.336;2023-04-16T15:35:51;11.70;99.90
19888;DHT22;10106;51.332;12.336;2023-04-16T15:38:17;11.60;99.90